sensor_id;sensor_type;location;lat;lon;timestamp;temperature;humidity
69418;DHT22;56610;48.872;2.400;2023-08-08T00:01:32;20.30;99.90
69418;DHT22;56610;48.872;2.400;2023-08-08T00:03:58;20.30;99.90
69418;DHT22;56610;48.872;2.400;2023-08-08T00:06:24;20.20;99.90
69418;DHT22;56610;48.872;2.400;2023-08-08T00:08:49;20.30;99.90
69418;DHT22;56610;48.872;2.400;2023-08-08T00:11:15;20.20;99.90
69418;DHT22;56610;48.872;2.400;2023-08-08T00:13:40;20.30;99.90
69418;DHT22;56610;48.872;2.400;2023-08-08T00:16:06;20.30;99.90
69418;DHT22;56610;48.872;2.400;2023-08-08T00:18:32;20.20;99.90
69418;DHT22;56610;48.872;2.400;2023-08-08T00:20:57;20.10;99.90
69418;DHT22;56610;48.872;2.400;2023-08-08T00:23:23;20.10;99.90
69418;DHT22;56610;48.872;2.400;2023-08-08T00:25:48;20.10;99.90
69418;DHT22;56610;48.872;2.400;2023-08-08T00:28:16;20.20;99.90
69418;DHT22;56610;48.872;2.400;2023-08-08T00:30:42;20.20;99.90
69418;DHT22;56610;48.872;2.400;2023-08-08T00:33:08;20.30;99.90
69418;DHT22;56610;48.872;2.400;2023-08-08T00:35:34;20.30;99.90
69418;DHT22;56610;48.872;2.400;2023-08-08T00:37:59;20.30;99.90
69418;DHT22;56610;48.872;2.400;2023-08-08T00:40:25;20.30;99.90
69418;DHT22;56610;48.872;2.400;2023-08-08T00:42:50;20.30;99.90
69418;DHT22;56610;48.872;2.400;2023-08-08T00:45:16;20.30;99.90
69418;DHT22;56610;48.872;2.400;2023-08-08T00:47:41;20.30;99.90
69418;DHT22;56610;48.872;2.400;2023-08-08T00:50:08;20.30;99.90
69418;DHT22;56610;48.872;2.400;2023-08-08T00:52:35;20.30;99.90
69418;DHT22;56610;48.872;2.400;2023-08-08T00:55:01;20.40;99.90
69418;DHT22;56610;48.872;2.400;2023-08-08T00:57:27;20.30;99.90
69418;DHT22;56610;48.872;2.400;2023-08-08T00:59:52;20.30;99.90
69418;DHT22;56610;48.872;2.400;2023-08-08T01:02:18;20.30;99.90
69418;DHT22;56610;48.872;2.400;2023-08-08T01:04:44;20.40;99.90
69418;DHT22;56610;48.872;2.400;2023-08-08T01:09:44;20.40;99.90
69418;DHT22;56610;48.872;2.400;2023-08-08T01:12:12;20.40;99.90
69418;DHT22;56610;48.872;2.400;2023-08-08T01:14:41;20.40;99.90
69418;DHT22;56610;48.872;2.400;2023-08-08T01:17:08;20.40;99.90
69418;DHT22;56610;48.872;2.400;2023-08-08T01:19:34;20.50;99.90
69418;DHT22;56610;48.872;2.400;2023-08-08T01:22:06;20.50;99.90
69418;DHT22;56610;48.872;2.400;2023-08-08T01:24:33;20.50;99.90
69418;DHT22;56610;48.872;2.400;2023-08-08T01:27:02;20.50;99.90
69418;DHT22;56610;48.872;2.400;2023-08-08T01:29:29;20.50;99.90
69418;DHT22;56610;48.872;2.400;2023-08-08T01:31:58;20.50;99.90
69418;DHT22;56610;48.872;2.400;2023-08-08T01:34:24;20.50;99.90
69418;DHT22;56610;48.872;2.400;2023-08-08T01:36:59;20.50;99.90
69418;DHT22;56610;48.872;2.400;2023-08-08T01:39:30;20.60;99.90
69418;DHT22;56610;48.872;2.400;2023-08-08T01:41:56;20.60;99.90
69418;DHT22;56610;48.872;2.400;2023-08-08T01:44:24;20.50;99.90
69418;DHT22;56610;48.872;2.400;2023-08-08T01:46:51;20.60;99.90
69418;DHT22;56610;48.872;2.400;2023-08-08T01:49:17;20.50;99.90
69418;DHT22;56610;48.872;2.400;2023-08-08T01:51:43;20.60;99.90
69418;DHT22;56610;48.872;2.400;2023-08-08T01:54:08;20.60;99.90
69418;DHT22;56610;48.872;2.400;2023-08-08T01:56:34;20.60;99.90
69418;DHT22;56610;48.872;2.400;2023-08-08T01:59:00;20.50;99.90
69418;DHT22;56610;48.872;2.400;2023-08-08T02:01:25;20.60;99.90
69418;DHT22;56610;48.872;2.400;2023-08-08T02:03:51;20.50;99.90
69418;DHT22;56610;48.872;2.400;2023-08-08T02:06:17;20.50;99.90
69418;DHT22;56610;48.872;2.400;2023-08-08T02:08:42;20.50;99.90
69418;DHT22;56610;48.872;2.400;2023-08-08T02:11:08;20.40;99.90
69418;DHT22;56610;48.872;2.400;2023-08-08T02:13:33;20.50;99.90
69418;DHT22;56610;48.872;2.400;2023-08-08T02:15:59;20.40;99.90
69418;DHT22;56610;48.872;2.400;2023-08-08T02:18:24;20.30;99.90
69418;DHT22;56610;48.872;2.400;2023-08-08T02:20:50;20.40;99.90
69418;DHT22;56610;48.872;2.400;2023-08-08T02:23:16;20.40;99.90
69418;DHT22;56610;48.872;2.400;2023-08-08T02:25:41;20.40;99.90
69418;DHT22;56610;48.872;2.400;2023-08-08T02:28:07;20.50;99.90
69418;DHT22;56610;48.872;2.400;2023-08-08T02:30:32;20.50;99.90
69418;DHT22;56610;48.872;2.400;2023-08-08T02:32:58;20.60;99.90
69418;DHT22;56610;48.872;2.400;2023-08-08T02:35:23;20.50;99.90
69418;DHT22;56610;48.872;2.400;2023-08-08T02:37:49;20.60;99.90
69418;DHT22;56610;48.872;2.400;2023-08-08T02:40:14;20.50;99.90
69418;DHT22;56610;48.872;2.400;2023-08-08T02:42:40;20.60;99.90
69418;DHT22;56610;48.872;2.400;2023-08-08T02:45:06;20.50;99.90
69418;DHT22;56610;48.872;2.400;2023-08-08T02:47:32;20.50;99.90
69418;DHT22;56610;48.872;2.400;2023-08-08T02:49:57;20.50;99.90
69418;DHT22;56610;48.872;2.400;2023-08-08T02:52:23;20.50;99.90
69418;DHT22;56610;48.872;2.400;2023-08-08T02:54:48;20.50;99.90
69418;DHT22;56610;48.872;2.400;2023-08-08T02:57:14;20.40;99.90
69418;DHT22;56610;48.872;2.400;2023-08-08T02:59:40;20.40;99.90
69418;DHT22;56610;48.872;2.400;2023-08-08T03:02:06;20.40;99.90
69418;DHT22;56610;48.872;2.400;2023-08-08T03:04:31;20.40;99.90
69418;DHT22;56610;48.872;2.400;2023-08-08T03:06:57;20.40;99.90
69418;DHT22;56610;48.872;2.400;2023-08-08T03:09:22;20.50;99.90
69418;DHT22;56610;48.872;2.400;2023-08-08T03:11:48;20.50;99.90
69418;DHT22;56610;48.872;2.400;2023-08-08T03:14:14;20.50;99.90
69418;DHT22;56610;48.872;2.400;2023-08-08T03:16:40;20.50;99.90
69418;DHT22;56610;48.872;2.400;2023-08-08T03:19:05;20.50;99.90
69418;DHT22;56610;48.872;2.400;2023-08-08T03:21:31;20.60;99.90
69418;DHT22;56610;48.872;2.400;2023-08-08T03:23:57;20.60;99.90
69418;DHT22;56610;48.872;2.400;2023-08-08T03:26:23;20.70;99.90
69418;DHT22;56610;48.872;2.400;2023-08-08T03:28:48;20.70;99.90
69418;DHT22;56610;48.872;2.400;2023-08-08T03:31:19;20.60;99.90
69418;DHT22;56610;48.872;2.400;2023-08-08T03:33:45;20.60;99.90
69418;DHT22;56610;48.872;2.400;2023-08-08T03:36:11;20.50;99.90
69418;DHT22;56610;48.872;2.400;2023-08-08T03:38:36;20.50;99.90
69418;DHT22;56610;48.872;2.400;2023-08-08T03:41:03;20.50;99.90
69418;DHT22;56610;48.872;2.400;2023-08-08T03:43:29;20.50;99.90
69418;DHT22;56610;48.872;2.400;2023-08-08T03:45:54;20.40;99.90
69418;DHT22;56610;48.872;2.400;2023-08-08T03:48:20;20.40;99.90
69418;DHT22;56610;48.872;2.400;2023-08-08T03:50:46;20.30;99.90
69418;DHT22;56610;48.872;2.400;2023-08-08T03:53:12;20.30;99.90
69418;DHT22;56610;48.872;2.400;2023-08-08T03:55:38;20.30;99.90
69418;DHT22;56610;48.872;2.400;2023-08-08T03:58:03;20.30;99.90
69418;DHT22;56610;48.872;2.400;2023-08-08T04:00:30;20.30;99.90
69418;DHT22;56610;48.872;2.400;2023-08-08T04:02:55;20.30;99.90
69418;DHT22;56610;48.872;2.400;2023-08-08T04:05:21;20.20;99.90
69418;DHT22;56610;48.872;2.400;2023-08-08T04:07:46;20.20;99.90
69418;DHT22;56610;48.872;2.400;2023-08-08T04:10:12;20.10;99.90
69418;DHT22;56610;48.872;2.400;2023-08-08T04:12:38;20.20;99.90
69418;DHT22;56610;48.872;2.400;2023-08-08T04:15:04;20.10;99.90
69418;DHT22;56610;48.872;2.400;2023-08-08T04:17:30;20.20;99.90
69418;DHT22;56610;48.872;2.400;2023-08-08T04:19:55;20.20;99.90
69418;DHT22;56610;48.872;2.400;2023-08-08T04:22:21;20.20;99.90
69418;DHT22;56610;48.872;2.400;2023-08-08T04:24:46;20.30;99.90
69418;DHT22;56610;48.872;2.400;2023-08-08T04:27:12;20.30;99.90
69418;DHT22;56610;48.872;2.400;2023-08-08T04:29:38;20.30;99.90
69418;DHT22;56610;48.872;2.400;2023-08-08T04:32:04;20.20;99.90
69418;DHT22;56610;48.872;2.400;2023-08-08T04:34:29;20.20;99.90
69418;DHT22;56610;48.872;2.400;2023-08-08T04:36:55;20.30;99.90
69418;DHT22;56610;48.872;2.400;2023-08-08T04:39:21;20.30;99.90
69418;DHT22;56610;48.872;2.400;2023-08-08T04:41:46;20.20;99.90
69418;DHT22;56610;48.872;2.400;2023-08-08T04:44:12;20.10;99.90
69418;DHT22;56610;48.872;2.400;2023-08-08T04:46:37;20.00;99.90
69418;DHT22;56610;48.872;2.400;2023-08-08T04:49:03;20.00;99.90
69418;DHT22;56610;48.872;2.400;2023-08-08T04:51:28;20.00;99.90
69418;DHT22;56610;48.872;2.400;2023-08-08T04:53:54;20.00;99.90
69418;DHT22;56610;48.872;2.400;2023-08-08T04:56:19;20.00;99.90
69418;DHT22;56610;48.872;2.400;2023-08-08T04:58:45;20.10;99.90
69418;DHT22;56610;48.872;2.400;2023-08-08T05:01:10;20.10;99.90
69418;DHT22;56610;48.872;2.400;2023-08-08T05:03:39;20.20;99.90
69418;DHT22;56610;48.872;2.400;2023-08-08T05:06:05;20.10;99.90
69418;DHT22;56610;48.872;2.400;2023-08-08T05:08:30;20.20;99.90
69418;DHT22;56610;48.872;2.400;2023-08-08T05:10:56;20.20;99.90
69418;DHT22;56610;48.872;2.400;2023-08-08T05:13:22;20.20;99.90
69418;DHT22;56610;48.872;2.400;2023-08-08T05:15:47;20.20;99.90
69418;DHT22;56610;48.872;2.400;2023-08-08T05:18:13;20.30;99.90
69418;DHT22;56610;48.872;2.400;2023-08-08T05:20:38;20.30;99.90
69418;DHT22;56610;48.872;2.400;2023-08-08T05:23:04;20.30;99.90
69418;DHT22;56610;48.872;2.400;2023-08-08T05:25:30;20.30;99.90
69418;DHT22;56610;48.872;2.400;2023-08-08T05:27:55;20.20;99.90
69418;DHT22;56610;48.872;2.400;2023-08-08T05:30:21;20.20;99.90
69418;DHT22;56610;48.872;2.400;2023-08-08T05:32:47;20.30;99.90
69418;DHT22;56610;48.872;2.400;2023-08-08T05:35:13;20.30;99.90
69418;DHT22;56610;48.872;2.400;2023-08-08T05:37:38;20.30;99.90
69418;DHT22;56610;48.872;2.400;2023-08-08T05:40:04;20.40;99.90
69418;DHT22;56610;48.872;2.400;2023-08-08T05:42:32;20.40;99.90
69418;DHT22;56610;48.872;2.400;2023-08-08T05:44:57;20.40;99.90
69418;DHT22;56610;48.872;2.400;2023-08-08T05:47:23;20.30;99.90
69418;DHT22;56610;48.872;2.400;2023-08-08T05:49:48;20.50;99.90
69418;DHT22;56610;48.872;2.400;2023-08-08T05:52:14;20.30;99.90
69418;DHT22;56610;48.872;2.400;2023-08-08T05:54:39;20.40;99.90
69418;DHT22;56610;48.872;2.400;2023-08-08T05:57:05;20.40;99.90
69418;DHT22;56610;48.872;2.400;2023-08-08T05:59:31;20.50;99.90
69418;DHT22;56610;48.872;2.400;2023-08-08T06:01:57;20.50;99.90
69418;DHT22;56610;48.872;2.400;2023-08-08T06:04:24;20.40;99.90
69418;DHT22;56610;48.872;2.400;2023-08-08T06:06:49;20.30;99.90
69418;DHT22;56610;48.872;2.400;2023-08-08T06:09:16;20.30;99.90
69418;DHT22;56610;48.872;2.400;2023-08-08T06:11:42;20.30;99.90
69418;DHT22;56610;48.872;2.400;2023-08-08T06:14:08;20.50;99.90
69418;DHT22;56610;48.872;2.400;2023-08-08T06:16:33;20.40;99.90
69418;DHT22;56610;48.872;2.400;2023-08-08T06:18:59;20.50;99.90
69418;DHT22;56610;48.872;2.400;2023-08-08T06:21:24;20.60;99.90
69418;DHT22;56610;48.872;2.400;2023-08-08T06:23:50;20.70;99.90
69418;DHT22;56610;48.872;2.400;2023-08-08T06:26:17;20.60;99.90
69418;DHT22;56610;48.872;2.400;2023-08-08T06:28:43;20.60;99.90
69418;DHT22;56610;48.872;2.400;2023-08-08T06:31:08;20.60;99.90
69418;DHT22;56610;48.872;2.400;2023-08-08T06:33:34;20.70;99.90
69418;DHT22;56610;48.872;2.400;2023-08-08T06:36:00;20.60;99.90
69418;DHT22;56610;48.872;2.400;2023-08-08T06:38:25;20.60;99.90
69418;DHT22;56610;48.872;2.400;2023-08-08T06:40:51;20.60;99.90
69418;DHT22;56610;48.872;2.400;2023-08-08T06:43:17;20.60;99.90
69418;DHT22;56610;48.872;2.400;2023-08-08T06:45:42;20.50;99.90
69418;DHT22;56610;48.872;2.400;2023-08-08T06:48:08;20.40;99.90
69418;DHT22;56610;48.872;2.400;2023-08-08T06:50:34;20.50;99.90
69418;DHT22;56610;48.872;2.400;2023-08-08T06:52:59;20.50;99.90
69418;DHT22;56610;48.872;2.400;2023-08-08T06:55:25;20.30;99.90
69418;DHT22;56610;48.872;2.400;2023-08-08T06:57:51;20.20;99.90
69418;DHT22;56610;48.872;2.400;2023-08-08T07:00:17;20.20;99.90
69418;DHT22;56610;48.872;2.400;2023-08-08T07:02:42;20.20;99.90
69418;DHT22;56610;48.872;2.400;2023-08-08T07:05:08;20.10;99.90
69418;DHT22;56610;48.872;2.400;2023-08-08T07:07:35;20.10;99.90
69418;DHT22;56610;48.872;2.400;2023-08-08T07:10:01;20.20;99.90
69418;DHT22;56610;48.872;2.400;2023-08-08T07:12:26;20.10;99.90
69418;DHT22;56610;48.872;2.400;2023-08-08T07:14:52;20.20;99.90
69418;DHT22;56610;48.872;2.400;2023-08-08T07:17:17;20.20;99.90
69418;DHT22;56610;48.872;2.400;2023-08-08T07:19:43;20.20;99.90
69418;DHT22;56610;48.872;2.400;2023-08-08T07:22:08;20.20;99.90
69418;DHT22;56610;48.872;2.400;2023-08-08T07:24:34;20.10;99.90
69418;DHT22;56610;48.872;2.400;2023-08-08T07:27:00;20.20;99.90
69418;DHT22;56610;48.872;2.400;2023-08-08T07:29:26;20.10;99.90
69418;DHT22;56610;48.872;2.400;2023-08-08T07:31:52;20.10;99.90
69418;DHT22;56610;48.872;2.400;2023-08-08T07:34:18;20.30;99.90
69418;DHT22;56610;48.872;2.400;2023-08-08T07:36:44;20.40;99.90
69418;DHT22;56610;48.872;2.400;2023-08-08T07:39:09;20.40;99.90
69418;DHT22;56610;48.872;2.400;2023-08-08T07:41:36;20.50;99.90
69418;DHT22;56610;48.872;2.400;2023-08-08T07:44:01;20.60;99.90
69418;DHT22;56610;48.872;2.400;2023-08-08T07:46:27;20.80;99.90
69418;DHT22;56610;48.872;2.400;2023-08-08T07:48:53;20.90;99.90
69418;DHT22;56610;48.872;2.400;2023-08-08T07:51:19;20.90;99.90
69418;DHT22;56610;48.872;2.400;2023-08-08T07:53:44;20.80;99.90
69418;DHT22;56610;48.872;2.400;2023-08-08T07:56:10;20.80;99.90
69418;DHT22;56610;48.872;2.400;2023-08-08T07:58:35;20.90;99.90
69418;DHT22;56610;48.872;2.400;2023-08-08T08:01:01;20.90;99.90
69418;DHT22;56610;48.872;2.400;2023-08-08T08:03:27;20.90;99.90
69418;DHT22;56610;48.872;2.400;2023-08-08T08:05:53;21.00;99.90
69418;DHT22;56610;48.872;2.400;2023-08-08T08:08:18;21.00;99.90
69418;DHT22;56610;48.872;2.400;2023-08-08T08:10:44;21.10;99.90
69418;DHT22;56610;48.872;2.400;2023-08-08T08:13:11;21.20;99.90
69418;DHT22;56610;48.872;2.400;2023-08-08T08:15:37;21.30;99.90
69418;DHT22;56610;48.872;2.400;2023-08-08T08:18:03;21.40;99.90
69418;DHT22;56610;48.872;2.400;2023-08-08T08:20:29;21.50;99.90
69418;DHT22;56610;48.872;2.400;2023-08-08T08:22:55;21.60;99.90
69418;DHT22;56610;48.872;2.400;2023-08-08T08:25:20;21.60;99.90
69418;DHT22;56610;48.872;2.400;2023-08-08T08:27:46;21.70;99.90
69418;DHT22;56610;48.872;2.400;2023-08-08T08:30:12;21.60;99.90
69418;DHT22;56610;48.872;2.400;2023-08-08T08:32:39;21.60;99.90
69418;DHT22;56610;48.872;2.400;2023-08-08T08:35:06;21.70;99.90
69418;DHT22;56610;48.872;2.400;2023-08-08T08:37:32;21.80;99.90
69418;DHT22;56610;48.872;2.400;2023-08-08T08:39:58;21.70;99.90
69418;DHT22;56610;48.872;2.400;2023-08-08T08:42:24;21.50;99.90
69418;DHT22;56610;48.872;2.400;2023-08-08T08:44:51;21.40;99.90
69418;DHT22;56610;48.872;2.400;2023-08-08T08:47:19;21.40;99.90
69418;DHT22;56610;48.872;2.400;2023-08-08T08:49:45;21.60;99.90
69418;DHT22;56610;48.872;2.400;2023-08-08T08:52:11;21.60;99.90
69418;DHT22;56610;48.872;2.400;2023-08-08T08:54:37;21.60;99.90
69418;DHT22;56610;48.872;2.400;2023-08-08T08:57:03;21.60;99.90
69418;DHT22;56610;48.872;2.400;2023-08-08T08:59:29;21.70;99.90
69418;DHT22;56610;48.872;2.400;2023-08-08T09:01:56;21.80;99.90
69418;DHT22;56610;48.872;2.400;2023-08-08T09:04:22;21.90;99.90
69418;DHT22;56610;48.872;2.400;2023-08-08T09:06:49;21.90;99.90
69418;DHT22;56610;48.872;2.400;2023-08-08T09:09:15;21.90;99.90
69418;DHT22;56610;48.872;2.400;2023-08-08T09:11:54;21.90;99.90
69418;DHT22;56610;48.872;2.400;2023-08-08T09:14:24;21.90;99.90
69418;DHT22;56610;48.872;2.400;2023-08-08T09:16:51;22.00;99.90
69418;DHT22;56610;48.872;2.400;2023-08-08T09:19:18;22.00;99.90
69418;DHT22;56610;48.872;2.400;2023-08-08T09:21:44;22.10;99.90
69418;DHT22;56610;48.872;2.400;2023-08-08T09:24:10;22.10;99.90
69418;DHT22;56610;48.872;2.400;2023-08-08T09:26:36;22.10;99.90
69418;DHT22;56610;48.872;2.400;2023-08-08T09:29:02;22.00;99.90
69418;DHT22;56610;48.872;2.400;2023-08-08T09:31:29;22.10;99.90
69418;DHT22;56610;48.872;2.400;2023-08-08T09:33:58;22.00;99.90
69418;DHT22;56610;48.872;2.400;2023-08-08T09:36:24;22.10;99.90
69418;DHT22;56610;48.872;2.400;2023-08-08T09:38:51;22.10;99.90
69418;DHT22;56610;48.872;2.400;2023-08-08T09:41:17;22.10;99.90
69418;DHT22;56610;48.872;2.400;2023-08-08T09:43:45;22.20;99.90
69418;DHT22;56610;48.872;2.400;2023-08-08T09:46:12;22.20;99.90
69418;DHT22;56610;48.872;2.400;2023-08-08T09:48:43;22.20;99.90
69418;DHT22;56610;48.872;2.400;2023-08-08T09:51:09;22.30;99.90
69418;DHT22;56610;48.872;2.400;2023-08-08T09:53:35;22.30;99.90
69418;DHT22;56610;48.872;2.400;2023-08-08T09:56:04;22.30;99.90
69418;DHT22;56610;48.872;2.400;2023-08-08T09:58:30;22.50;99.90
69418;DHT22;56610;48.872;2.400;2023-08-08T10:00:59;22.50;99.90
69418;DHT22;56610;48.872;2.400;2023-08-08T10:03:25;22.60;99.90
69418;DHT22;56610;48.872;2.400;2023-08-08T10:05:54;22.60;99.90
69418;DHT22;56610;48.872;2.400;2023-08-08T10:08:27;22.60;99.90
69418;DHT22;56610;48.872;2.400;2023-08-08T10:10:53;22.60;99.90
69418;DHT22;56610;48.872;2.400;2023-08-08T10:13:28;22.50;99.90
69418;DHT22;56610;48.872;2.400;2023-08-08T10:15:54;22.60;99.90
69418;DHT22;56610;48.872;2.400;2023-08-08T10:18:24;22.60;99.90
69418;DHT22;56610;48.872;2.400;2023-08-08T10:20:51;22.80;99.90
69418;DHT22;56610;48.872;2.400;2023-08-08T10:23:18;22.80;99.90
69418;DHT22;56610;48.872;2.400;2023-08-08T10:25:53;22.80;99.90
69418;DHT22;56610;48.872;2.400;2023-08-08T10:28:21;22.80;99.90
69418;DHT22;56610;48.872;2.400;2023-08-08T10:30:55;22.80;99.90
69418;DHT22;56610;48.872;2.400;2023-08-08T10:33:39;22.90;99.90
69418;DHT22;56610;48.872;2.400;2023-08-08T10:36:06;22.90;99.90
69418;DHT22;56610;48.872;2.400;2023-08-08T10:38:47;23.20;99.90
69418;DHT22;56610;48.872;2.400;2023-08-08T10:41:20;23.10;99.90
69418;DHT22;56610;48.872;2.400;2023-08-08T10:43:53;23.30;99.90
69418;DHT22;56610;48.872;2.400;2023-08-08T10:46:27;23.40;99.90
69418;DHT22;56610;48.872;2.400;2023-08-08T10:48:55;23.40;99.90
69418;DHT22;56610;48.872;2.400;2023-08-08T10:51:22;23.50;99.90
69418;DHT22;56610;48.872;2.400;2023-08-08T10:53:51;23.50;99.90
69418;DHT22;56610;48.872;2.400;2023-08-08T10:56:18;23.50;99.90
69418;DHT22;56610;48.872;2.400;2023-08-08T10:58:48;23.60;99.90
69418;DHT22;56610;48.872;2.400;2023-08-08T11:01:13;23.80;99.90
69418;DHT22;56610;48.872;2.400;2023-08-08T11:03:40;24.00;99.90
69418;DHT22;56610;48.872;2.400;2023-08-08T11:06:10;24.20;99.90
69418;DHT22;56610;48.872;2.400;2023-08-08T11:08:37;24.20;99.90
69418;DHT22;56610;48.872;2.400;2023-08-08T11:11:04;24.20;99.90
69418;DHT22;56610;48.872;2.400;2023-08-08T11:13:30;24.20;99.90
69418;DHT22;56610;48.872;2.400;2023-08-08T11:15:56;24.10;99.90
69418;DHT22;56610;48.872;2.400;2023-08-08T11:18:21;24.20;99.90
69418;DHT22;56610;48.872;2.400;2023-08-08T11:20:48;24.10;99.90
69418;DHT22;56610;48.872;2.400;2023-08-08T11:23:14;24.20;99.90
69418;DHT22;56610;48.872;2.400;2023-08-08T11:25:42;24.20;99.90
69418;DHT22;56610;48.872;2.400;2023-08-08T11:28:09;24.10;99.90
69418;DHT22;56610;48.872;2.400;2023-08-08T11:30:38;24.00;99.90
69418;DHT22;56610;48.872;2.400;2023-08-08T11:33:05;24.00;99.90
69418;DHT22;56610;48.872;2.400;2023-08-08T11:35:32;24.10;99.90
69418;DHT22;56610;48.872;2.400;2023-08-08T11:37:59;24.10;99.90
69418;DHT22;56610;48.872;2.400;2023-08-08T11:40:27;24.10;99.90
69418;DHT22;56610;48.872;2.400;2023-08-08T11:42:53;24.00;99.90
69418;DHT22;56610;48.872;2.400;2023-08-08T11:45:20;24.00;99.90
69418;DHT22;56610;48.872;2.400;2023-08-08T11:47:49;24.10;99.90
69418;DHT22;56610;48.872;2.400;2023-08-08T11:50:15;24.30;99.90
69418;DHT22;56610;48.872;2.400;2023-08-08T11:52:44;24.40;99.90
69418;DHT22;56610;48.872;2.400;2023-08-08T11:55:11;24.30;99.90
69418;DHT22;56610;48.872;2.400;2023-08-08T11:57:37;24.20;99.90
69418;DHT22;56610;48.872;2.400;2023-08-08T12:00:06;24.10;99.90
69418;DHT22;56610;48.872;2.400;2023-08-08T12:02:33;24.00;99.90
69418;DHT22;56610;48.872;2.400;2023-08-08T12:05:13;23.90;99.90
69418;DHT22;56610;48.872;2.400;2023-08-08T12:07:42;24.00;99.90
69418;DHT22;56610;48.872;2.400;2023-08-08T12:10:13;24.10;99.90
69418;DHT22;56610;48.872;2.400;2023-08-08T12:12:39;24.30;99.90
69418;DHT22;56610;48.872;2.400;2023-08-08T12:15:09;24.50;99.90
69418;DHT22;56610;48.872;2.400;2023-08-08T12:17:36;24.80;99.90
69418;DHT22;56610;48.872;2.400;2023-08-08T12:20:07;25.00;99.90
69418;DHT22;56610;48.872;2.400;2023-08-08T12:22:33;25.10;99.90
69418;DHT22;56610;48.872;2.400;2023-08-08T12:24:59;25.20;99.90
69418;DHT22;56610;48.872;2.400;2023-08-08T12:27:24;25.30;99.90
69418;DHT22;56610;48.872;2.400;2023-08-08T12:29:50;25.40;99.90
69418;DHT22;56610;48.872;2.400;2023-08-08T12:32:20;25.50;99.90
69418;DHT22;56610;48.872;2.400;2023-08-08T12:34:49;25.60;99.90
69418;DHT22;56610;48.872;2.400;2023-08-08T12:37:15;25.50;99.90
69418;DHT22;56610;48.872;2.400;2023-08-08T12:39:40;25.40;99.90
69418;DHT22;56610;48.872;2.400;2023-08-08T12:42:06;25.70;99.90
69418;DHT22;56610;48.872;2.400;2023-08-08T12:44:31;25.90;99.90
69418;DHT22;56610;48.872;2.400;2023-08-08T12:46:57;26.20;99.90
69418;DHT22;56610;48.872;2.400;2023-08-08T12:49:23;26.40;99.90
69418;DHT22;56610;48.872;2.400;2023-08-08T12:51:50;26.50;99.80
69418;DHT22;56610;48.872;2.400;2023-08-08T12:54:16;26.80;99.90
69418;DHT22;56610;48.872;2.400;2023-08-08T12:56:41;26.90;99.70
69418;DHT22;56610;48.872;2.400;2023-08-08T12:59:09;27.20;99.20
69418;DHT22;56610;48.872;2.400;2023-08-08T13:01:34;27.40;98.90
69418;DHT22;56610;48.872;2.400;2023-08-08T13:04:00;27.50;98.90
69418;DHT22;56610;48.872;2.400;2023-08-08T13:06:26;27.90;98.30
69418;DHT22;56610;48.872;2.400;2023-08-08T13:08:52;28.00;97.90
69418;DHT22;56610;48.872;2.400;2023-08-08T13:11:17;27.90;97.50
69418;DHT22;56610;48.872;2.400;2023-08-08T13:13:43;27.80;97.40
69418;DHT22;56610;48.872;2.400;2023-08-08T13:16:09;27.80;97.40
69418;DHT22;56610;48.872;2.400;2023-08-08T13:18:36;27.70;97.40
69418;DHT22;56610;48.872;2.400;2023-08-08T13:21:01;27.50;97.30
69418;DHT22;56610;48.872;2.400;2023-08-08T13:23:27;27.60;98.00
69418;DHT22;56610;48.872;2.400;2023-08-08T13:25:52;27.70;97.60
69418;DHT22;56610;48.872;2.400;2023-08-08T13:28:18;27.70;97.50
69418;DHT22;56610;48.872;2.400;2023-08-08T13:30:43;27.90;98.10
69418;DHT22;56610;48.872;2.400;2023-08-08T13:33:09;28.00;97.10
69418;DHT22;56610;48.872;2.400;2023-08-08T13:35:35;27.90;97.00
69418;DHT22;56610;48.872;2.400;2023-08-08T13:38:00;27.80;97.30
69418;DHT22;56610;48.872;2.400;2023-08-08T13:40:26;27.80;97.40
69418;DHT22;56610;48.872;2.400;2023-08-08T13:42:52;28.10;96.80
69418;DHT22;56610;48.872;2.400;2023-08-08T13:45:18;27.80;96.80
69418;DHT22;56610;48.872;2.400;2023-08-08T13:47:44;27.60;96.90
69418;DHT22;56610;48.872;2.400;2023-08-08T13:50:10;27.60;96.30
69418;DHT22;56610;48.872;2.400;2023-08-08T13:52:36;27.30;96.20
69418;DHT22;56610;48.872;2.400;2023-08-08T13:55:01;27.20;96.50
69418;DHT22;56610;48.872;2.400;2023-08-08T13:57:27;27.10;96.40
69418;DHT22;56610;48.872;2.400;2023-08-08T13:59:53;27.00;97.10
69418;DHT22;56610;48.872;2.400;2023-08-08T14:02:18;27.00;97.80
69418;DHT22;56610;48.872;2.400;2023-08-08T14:04:45;26.80;97.20
69418;DHT22;56610;48.872;2.400;2023-08-08T14:07:10;26.80;97.20
69418;DHT22;56610;48.872;2.400;2023-08-08T14:09:36;26.70;97.20
69418;DHT22;56610;48.872;2.400;2023-08-08T14:12:02;26.60;97.90
69418;DHT22;56610;48.872;2.400;2023-08-08T14:14:27;26.60;97.00
69418;DHT22;56610;48.872;2.400;2023-08-08T14:16:53;26.40;96.80
69418;DHT22;56610;48.872;2.400;2023-08-08T14:19:18;26.50;97.00
69418;DHT22;56610;48.872;2.400;2023-08-08T14:21:44;26.60;97.10
69418;DHT22;56610;48.872;2.400;2023-08-08T14:24:10;26.70;96.60
69418;DHT22;56610;48.872;2.400;2023-08-08T14:26:36;26.90;96.60
69418;DHT22;56610;48.872;2.400;2023-08-08T14:29:02;26.90;96.20
69418;DHT22;56610;48.872;2.400;2023-08-08T14:31:27;27.00;97.20
69418;DHT22;56610;48.872;2.400;2023-08-08T14:33:53;27.10;95.80
69418;DHT22;56610;48.872;2.400;2023-08-08T14:36:19;27.20;97.30
69418;DHT22;56610;48.872;2.400;2023-08-08T14:38:44;27.30;95.10
69418;DHT22;56610;48.872;2.400;2023-08-08T14:41:10;27.30;95.20
69418;DHT22;56610;48.872;2.400;2023-08-08T14:43:35;27.30;95.20
69418;DHT22;56610;48.872;2.400;2023-08-08T14:46:01;27.20;94.70
69418;DHT22;56610;48.872;2.400;2023-08-08T14:48:26;27.20;95.80
69418;DHT22;56610;48.872;2.400;2023-08-08T14:50:52;27.30;95.40
69418;DHT22;56610;48.872;2.400;2023-08-08T14:53:18;27.40;95.10
69418;DHT22;56610;48.872;2.400;2023-08-08T14:55:46;27.30;95.30
69418;DHT22;56610;48.872;2.400;2023-08-08T14:58:13;27.20;95.00
69418;DHT22;56610;48.872;2.400;2023-08-08T15:00:39;27.00;94.60
69418;DHT22;56610;48.872;2.400;2023-08-08T15:03:04;26.90;94.60
69418;DHT22;56610;48.872;2.400;2023-08-08T15:05:31;26.90;94.70
69418;DHT22;56610;48.872;2.400;2023-08-08T15:07:56;26.80;95.30
69418;DHT22;56610;48.872;2.400;2023-08-08T15:10:22;26.90;95.60
69418;DHT22;56610;48.872;2.400;2023-08-08T15:12:48;26.90;95.40
69418;DHT22;56610;48.872;2.400;2023-08-08T15:15:13;26.90;94.60
69418;DHT22;56610;48.872;2.400;2023-08-08T15:17:40;26.90;94.90
69418;DHT22;56610;48.872;2.400;2023-08-08T15:20:06;26.90;95.10
69418;DHT22;56610;48.872;2.400;2023-08-08T15:22:32;26.90;95.30
69418;DHT22;56610;48.872;2.400;2023-08-08T15:24:58;27.00;95.30
69418;DHT22;56610;48.872;2.400;2023-08-08T15:27:24;26.90;95.40